Time;durP1;ratioP1;P1;durP2;ratioP2;P2;SDS_P1;SDS_P2;PMS_P1;PMS_P2;Temp;Humidity;BMP_temperature;BMP_pressure;BME280_temperature;BME280_humidity;BME280_pressure;Samples;Min_cycle;Max_cycle;Signal;HPM_P1;HPM_P2
2022/03/17 00:02:15;;;;;;;5.60;1.70;;;31.00;20.60;;;;;;4992327;28;20358;-63
2022/03/17 00:04:41;;;;;;;8.00;1.42;;;30.90;21.00;;;;;;4991728;28;20136;-61
2022/03/17 00:07:08;;;;;;;7.72;1.40;;;30.90;21.40;;;;;;4993461;28;20093;-61
2022/03/17 00:09:34;;;;;;;6.15;1.42;;;30.90;21.30;;;;;;4992360;28;20087;-62
2022/03/17 00:12:01;;;;;;;4.88;1.35;;;30.90;21.30;;;;;;4990987;28;20565;-60
2022/03/17 00:14:28;;;;;;;11.00;1.27;;;30.70;21.20;;;;;;5010470;28;21031;-60
2022/03/17 00:16:54;;;;;;;11.65;2.85;;;30.70;21.50;;;;;;4992678;28;20434;-61
2022/03/17 00:19:21;;;;;;;16.63;2.22;;;30.70;21.20;;;;;;5026028;28;20076;-59
2022/03/17 00:21:47;;;;;;;7.70;1.83;;;30.60;21.70;;;;;;4992888;28;20125;-61
2022/03/17 00:24:13;;;;;;;6.75;1.73;;;30.60;21.70;;;;;;4993547;28;20124;-60
2022/03/17 00:26:40;;;;;;;10.85;1.67;;;30.50;22.00;;;;;;4996603;28;20188;-62
2022/03/17 00:29:09;;;;;;;4.35;1.48;;;30.50;22.10;;;;;;5015589;28;20505;-60
2022/03/17 00:31:39;;;;;;;5.72;1.63;;;30.50;21.90;;;;;;4964646;28;20525;-61
2022/03/17 00:34:07;;;;;;;8.43;1.60;;;30.50;22.10;;;;;;4994734;28;20077;-62
2022/03/17 00:36:34;;;;;;;4.97;1.20;;;30.40;22.40;;;;;;4994692;28;20066;-61
2022/03/17 00:39:04;;;;;;;16.88;2.40;;;30.40;22.40;;;;;;4998322;28;20079;-60
2022/03/17 00:41:30;;;;;;;8.10;1.20;;;30.40;23.10;;;;;;5016265;28;20077;-62
2022/03/17 00:43:57;;;;;;;8.75;1.70;;;30.20;22.40;;;;;;4994382;28;20104;-62
2022/03/17 00:46:23;;;;;;;17.10;1.55;;;30.10;22.70;;;;;;4994272;28;20089;-61
2022/03/17 00:48:50;;;;;;;9.05;1.55;;;30.10;22.90;;;;;;4981191;28;20077;-63
2022/03/17 00:51:16;;;;;;;7.30;1.52;;;30.00;23.30;;;;;;4997009;28;20166;-61
2022/03/17 00:53:43;;;;;;;8.30;1.50;;;29.90;23.70;;;;;;4980883;28;20510;-61
2022/03/17 00:56:11;;;;;;;5.78;1.48;;;29.80;23.90;;;;;;4981790;28;20161;-61
2022/03/17 00:58:38;;;;;;;8.25;1.75;;;29.70;23.90;;;;;;4995281;28;20162;-63
2022/03/17 01:01:10;;;;;;;6.95;1.80;;;29.50;24.00;;;;;;4997329;28;20569;-63
2022/03/17 01:03:38;;;;;;;7.28;1.58;;;29.50;23.90;;;;;;4998374;28;20093;-59
2022/03/17 01:06:11;;;;;;;7.10;1.30;;;29.40;23.80;;;;;;4980707;28;20089;-61
2022/03/17 01:08:45;;;;;;;12.70;2.30;;;29.30;23.90;;;;;;4994683;28;20460;-61
2022/03/17 01:11:11;;;;;;;11.80;1.40;;;29.30;24.40;;;;;;5003286;28;20631;-61
2022/03/17 01:13:38;;;;;;;8.00;1.70;;;29.10;24.50;;;;;;4990778;28;20082;-62
2022/03/17 01:16:05;;;;;;;8.45;1.80;;;29.10;25.00;;;;;;4974464;28;21304;-61
2022/03/17 01:18:32;;;;;;;6.55;1.95;;;29.00;25.20;;;;;;4958720;28;20169;-62
2022/03/17 01:20:58;;;;;;;8.80;1.67;;;28.90;25.00;;;;;;4957531;28;20518;-60
2022/03/17 01:23:25;;;;;;;9.10;1.77;;;28.80;25.10;;;;;;4972083;28;20079;-57
2022/03/17 01:25:51;;;;;;;9.30;1.90;;;28.70;25.50;;;;;;4974129;28;20076;-62
2022/03/17 01:28:19;;;;;;;11.80;2.10;;;28.60;25.80;;;;;;4989349;28;20123;-57
2022/03/17 01:30:52;;;;;;;18.30;1.83;;;28.50;26.00;;;;;;4971802;28;20075;-57
2022/03/17 01:33:18;;;;;;;11.30;1.95;;;28.30;26.20;;;;;;4972457;28;20077;-62
2022/03/17 01:35:45;;;;;;;11.18;1.92;;;28.20;26.40;;;;;;4972115;28;20094;-61
2022/03/17 01:38:11;;;;;;;15.63;2.08;;;28.10;26.50;;;;;;4989319;28;20169;-61
2022/03/17 01:40:41;;;;;;;14.50;2.20;;;28.00;26.50;;;;;;4971616;28;20477;-61
2022/03/17 01:43:08;;;;;;;8.60;1.65;;;27.90;26.60;;;;;;4987844;28;20082;-60
2022/03/17 01:45:35;;;;;;;14.50;2.58;;;27.80;26.70;;;;;;4956639;28;20102;-61
2022/03/17 01:48:01;;;;;;;12.52;2.10;;;27.70;26.90;;;;;;4988587;28;20077;-62
2022/03/17 01:50:28;;;;;;;10.77;1.90;;;27.60;26.90;;;;;;4973054;28;21364;-61
2022/03/17 01:52:54;;;;;;;7.40;1.70;;;27.50;26.90;;;;;;4956868;28;20094;-60
2022/03/17 01:55:21;;;;;;;6.32;2.25;;;27.40;26.60;;;;;;4955768;28;20416;-61
2022/03/17 01:58:08;;;;;;;10.27;2.33;;;27.30;26.50;;;;;;4972927;28;20530;-61
2022/03/17 02:00:40;;;;;;;11.47;2.60;;;27.20;26.30;;;;;;4971665;28;20577;-62
2022/03/17 02:03:07;;;;;;;11.95;2.25;;;27.10;26.10;;;;;;4972185;28;20071;-58
2022/03/17 02:08:55;;;;;;;13.07;2.67;;;27.00;25.90;;;;;;4974851;28;20144;-61
2022/03/17 02:14:06;;;;;;;14.45;2.30;;;26.80;25.80;;;;;;4970768;28;20097;-57
2022/03/17 02:16:33;;;;;;;15.90;2.33;;;26.80;25.90;;;;;;4955504;28;20068;-60
2022/03/17 02:19:15;;;;;;;16.10;2.67;;;26.80;25.90;;;;;;4988020;28;20080;-62
2022/03/17 02:21:44;;;;;;;20.83;2.50;;;26.70;25.90;;;;;;4988604;28;20528;-59
2022/03/17 02:33:42;;;;;;;10.77;2.20;;;26.50;26.00;;;;;;4972478;28;20084;-62
2022/03/17 02:39:40;;;;;;;16.38;3.80;;;26.40;26.30;;;;;;4972561;28;20097;-61
2022/03/17 02:48:51;;;;;;;20.52;4.35;;;26.40;29.30;;;;;;4954234;28;20077;-60
2022/03/17 02:51:17;;;;;;;17.17;4.50;;;26.40;30.80;;;;;;4987121;28;20426;-65
2022/03/17 02:53:44;;;;;;;22.40;5.53;;;26.30;31.20;;;;;;4983781;28;20484;-69
2022/03/17 02:59:33;;;;;;;21.10;5.57;;;26.30;32.30;;;;;;3149306;28;20146;-59
2022/03/17 03:02:04;;;;;;;21.92;5.45;;;26.20;33.00;;;;;;4984744;28;20071;-60
2022/03/17 03:08:05;;;;;;;26.27;5.40;;;26.20;34.30;;;;;;4952919;28;20151;-61
2022/03/17 03:11:09;;;;;;;21.33;5.90;;;26.10;34.80;;;;;;4982472;28;20079;-58
2022/03/17 03:13:36;;;;;;;25.33;8.05;;;26.10;35.40;;;;;;4964022;28;20560;-59
2022/03/17 03:16:37;;;;;;;30.75;9.95;;;26.10;35.70;;;;;;4981234;28;20086;-58
2022/03/17 03:19:03;;;;;;;24.80;10.60;;;26.00;36.00;;;;;;4984357;28;20110;-62
2022/03/17 03:21:30;;;;;;;24.48;7.95;;;26.00;36.30;;;;;;4984276;28;20073;-58
2022/03/17 03:23:57;;;;;;;25.33;9.25;;;26.00;36.60;;;;;;4968177;28;20092;-58
2022/03/17 03:26:43;;;;;;;18.90;6.72;;;25.90;36.60;;;;;;4966734;28;20095;-58
2022/03/17 03:29:33;;;;;;;29.98;9.90;;;25.90;36.60;;;;;;4968337;28;20074;-60
2022/03/17 03:32:00;;;;;;;23.58;7.63;;;25.90;36.70;;;;;;4968325;28;20467;-59
2022/03/17 03:34:28;;;;;;;24.02;6.22;;;25.90;36.90;;;;;;4983859;28;20443;-60
2022/03/17 03:39:39;;;;;;;23.98;5.95;;;25.80;36.90;;;;;;4970543;28;20073;-60
2022/03/17 03:42:07;;;;;;;20.50;5.70;;;25.80;36.90;;;;;;4970337;28;20074;-57
2022/03/17 03:44:34;;;;;;;22.20;4.88;;;25.80;37.00;;;;;;4968236;28;20086;-58
2022/03/17 03:47:01;;;;;;;26.13;5.90;;;25.80;37.10;;;;;;4985730;28;20130;-58
2022/03/17 03:49:27;;;;;;;18.45;4.90;;;25.70;37.10;;;;;;4970322;28;20074;-60
2022/03/17 03:51:54;;;;;;;19.15;4.97;;;25.70;37.10;;;;;;4968873;28;20083;-58
2022/03/17 03:54:20;;;;;;;25.27;5.93;;;25.60;37.10;;;;;;4968902;28;20083;-60
2022/03/17 03:56:51;;;;;;;18.48;6.25;;;25.60;37.30;;;;;;4952791;28;20178;-58
2022/03/17 04:01:48;;;;;;;19.98;5.53;;;25.60;37.50;;;;;;4987610;28;20083;-58
2022/03/17 04:04:18;;;;;;;20.42;5.28;;;25.50;37.60;;;;;;4973072;28;20110;-62
2022/03/17 04:06:56;;;;;;;21.77;5.28;;;25.50;37.80;;;;;;4972541;28;20105;-59
2022/03/17 04:09:24;;;;;;;21.55;5.57;;;25.40;37.80;;;;;;4971894;28;20078;-61
2022/03/17 04:11:52;;;;;;;19.92;5.03;;;25.30;37.90;;;;;;4956543;28;20454;-62
2022/03/17 04:14:18;;;;;;;18.35;4.68;;;25.30;38.00;;;;;;4972012;28;20071;-59
2022/03/17 04:16:45;;;;;;;18.75;4.82;;;25.20;38.00;;;;;;4971197;28;20129;-60
2022/03/17 04:19:18;;;;;;;18.60;4.38;;;25.20;38.10;;;;;;4972282;28;20082;-63
2022/03/17 04:21:46;;;;;;;24.38;4.30;;;25.20;38.10;;;;;;4987926;28;20086;-62
2022/03/17 04:24:13;;;;;;;27.13;4.97;;;25.10;38.10;;;;;;4972189;28;20474;-65
2022/03/17 04:26:40;;;;;;;19.45;5.10;;;25.10;38.20;;;;;;4970930;28;20087;-58
2022/03/17 04:29:07;;;;;;;16.08;4.82;;;25.10;38.30;;;;;;4971820;28;20438;-59
2022/03/17 04:31:34;;;;;;;24.33;5.53;;;25.00;38.30;;;;;;4971169;28;20095;-62
2022/03/17 04:34:00;;;;;;;24.10;5.18;;;25.00;38.30;;;;;;4955844;28;20075;-61
2022/03/17 04:36:27;;;;;;;22.45;5.70;;;24.90;38.40;;;;;;4969702;28;20125;-64
2022/03/17 04:38:54;;;;;;;20.10;5.55;;;24.90;38.50;;;;;;4960123;28;20439;-62
2022/03/17 04:41:20;;;;;;;23.67;5.03;;;24.80;38.30;;;;;;4972658;28;20509;-59
2022/03/17 04:43:47;;;;;;;21.15;4.10;;;24.90;38.30;;;;;;4986096;28;20072;-62
2022/03/17 04:46:13;;;;;;;21.83;5.00;;;24.80;38.40;;;;;;4970189;28;20194;-59
2022/03/17 04:48:40;;;;;;;17.33;4.45;;;24.80;38.30;;;;;;4973706;28;20157;-61
2022/03/17 04:51:07;;;;;;;19.33;4.40;;;24.70;38.20;;;;;;4971968;28;20083;-61
2022/03/17 04:53:33;;;;;;;19.55;4.28;;;24.70;38.90;;;;;;4967157;28;20079;-61
2022/03/17 04:56:03;;;;;;;19.80;4.30;;;24.70;38.30;;;;;;4971018;28;20430;-62
2022/03/17 04:58:31;;;;;;;33.38;5.15;;;24.60;38.30;;;;;;4986303;28;20435;-62
2022/03/17 05:00:59;;;;;;;25.98;5.63;;;24.60;38.30;;;;;;4966512;28;20112;-61
2022/03/17 05:03:26;;;;;;;21.88;5.05;;;24.50;38.30;;;;;;4971371;28;20481;-62
2022/03/17 05:05:53;;;;;;;15.25;4.72;;;24.50;38.50;;;;;;4970004;28;20095;-58
2022/03/17 05:08:20;;;;;;;19.58;5.03;;;24.40;38.50;;;;;;4983868;28;20098;-62
2022/03/17 05:10:47;;;;;;;17.50;5.30;;;24.30;38.60;;;;;;4969901;28;20110;-60
2022/03/17 05:13:16;;;;;;;25.77;4.93;;;24.30;38.60;;;;;;4958130;28;20106;-61
2022/03/17 05:15:43;;;;;;;21.00;4.75;;;24.20;38.70;;;;;;4973264;28;20071;-60
2022/03/17 05:18:10;;;;;;;18.48;4.78;;;24.20;38.60;;;;;;4971924;28;20162;-61
2022/03/17 05:20:37;;;;;;;18.45;5.00;;;24.20;38.50;;;;;;4971370;28;20103;-61
2022/03/17 05:23:15;;;;;;;19.10;4.90;;;24.10;38.60;;;;;;4969894;28;20086;-62
2022/03/17 05:25:47;;;;;;;21.98;5.10;;;24.10;38.50;;;;;;4967791;28;20562;-61
2022/03/17 05:28:14;;;;;;;16.23;5.35;;;24.10;38.40;;;;;;4970300;28;20166;-61
2022/03/17 05:30:42;;;;;;;20.63;4.82;;;24.10;38.40;;;;;;4970273;28;20076;-61
2022/03/17 05:33:11;;;;;;;21.23;5.00;;;24.00;38.30;;;;;;4959904;28;20123;-65
2022/03/17 05:35:42;;;;;;;19.70;6.70;;;24.00;38.20;;;;;;4953630;28;20074;-61
2022/03/17 05:38:09;;;;;;;17.23;5.80;;;24.00;38.20;;;;;;4968908;28;20091;-63
2022/03/17 05:40:36;;;;;;;16.52;4.72;;;24.00;38.10;;;;;;4969621;28;20123;-59
2022/03/17 05:43:06;;;;;;;15.68;4.28;;;24.00;38.10;;;;;;4970914;28;20087;-64
2022/03/17 05:45:34;;;;;;;16.70;4.07;;;23.90;38.00;;;;;;4970150;28;20171;-62
2022/03/17 05:48:03;;;;;;;22.73;5.10;;;23.90;37.90;;;;;;4970826;28;20161;-60
2022/03/17 05:50:32;;;;;;;17.73;4.25;;;23.90;37.90;;;;;;4970215;28;20079;-60
2022/03/17 05:52:58;;;;;;;15.02;3.97;;;23.90;37.80;;;;;;4969654;28;20173;-59
2022/03/17 05:55:26;;;;;;;16.55;3.75;;;23.90;37.70;;;;;;4971474;28;20075;-65
2022/03/17 05:57:54;;;;;;;18.52;3.90;;;23.80;37.60;;;;;;4970093;28;20082;-61
2022/03/17 06:00:25;;;;;;;15.55;3.95;;;23.80;37.50;;;;;;4968111;28;20126;-61
2022/03/17 06:02:52;;;;;;;19.35;4.68;;;23.90;37.50;;;;;;4968689;28;20137;-57
2022/03/17 06:05:19;;;;;;;17.80;5.13;;;23.80;37.50;;;;;;4968892;28;20071;-61
2022/03/17 06:07:49;;;;;;;13.20;3.70;;;23.80;37.50;;;;;;4954227;28;20102;-61
2022/03/17 06:10:22;;;;;;;16.25;3.88;;;23.80;37.60;;;;;;4968695;28;20075;-60
2022/03/17 06:12:51;;;;;;;19.90;4.22;;;23.70;37.40;;;;;;4969767;28;20091;-61
2022/03/17 06:15:19;;;;;;;18.17;4.70;;;23.70;37.40;;;;;;4969333;28;20099;-62
2022/03/17 06:17:56;;;;;;;22.73;6.32;;;23.70;37.40;;;;;;4952933;28;20090;-58
2022/03/17 06:20:23;;;;;;;;;;;23.70;37.40;;;;;;4959648;28;20075;-62
2022/03/17 06:22:51;;;;;;;18.15;4.28;;;23.70;37.30;;;;;;4966242;28;20028;-64
2022/03/17 06:25:19;;;;;;;17.48;4.05;;;23.70;37.30;;;;;;4967025;28;20091;-60
2022/03/17 06:27:48;;;;;;;12.93;3.30;;;23.70;37.40;;;;;;4966778;28;20104;-61
2022/03/17 06:30:20;;;;;;;18.33;3.65;;;23.70;37.40;;;;;;4966527;28;20572;-59
2022/03/17 06:32:47;;;;;;;13.55;3.65;;;23.60;37.50;;;;;;4934797;28;20091;-61
2022/03/17 06:35:19;;;;;;;14.20;3.90;;;23.60;37.50;;;;;;4951063;28;20130;-60
2022/03/17 06:37:47;;;;;;;13.98;3.28;;;23.60;37.70;;;;;;4953483;28;20454;-60
2022/03/17 06:40:14;;;;;;;17.77;3.72;;;23.50;37.60;;;;;;4951550;28;20067;-60
2022/03/17 06:42:41;;;;;;;13.95;3.85;;;23.50;37.70;;;;;;4969916;28;20162;-58
2022/03/17 06:45:08;;;;;;;14.25;4.03;;;23.40;37.70;;;;;;4967590;28;20095;-63
2022/03/17 06:47:35;;;;;;;20.45;3.75;;;23.40;37.80;;;;;;4967689;28;20079;-60
2022/03/17 06:50:01;;;;;;;16.20;4.25;;;23.40;37.80;;;;;;4968998;28;20171;-63
2022/03/17 06:52:28;;;;;;;14.25;4.25;;;23.40;37.80;;;;;;4952167;28;20087;-59
2022/03/17 06:54:54;;;;;;;9.48;3.30;;;23.30;38.00;;;;;;4968300;28;20087;-62
2022/03/17 06:57:22;;;;;;;13.57;3.42;;;23.20;38.10;;;;;;4968237;28;20087;-59
2022/03/17 06:59:49;;;;;;;20.17;3.95;;;23.20;38.10;;;;;;4967744;28;20114;-58
2022/03/17 07:02:17;;;;;;;12.70;3.42;;;23.20;38.40;;;;;;4966760;28;20083;-60
2022/03/17 07:04:44;;;;;;;12.93;3.92;;;23.10;38.40;;;;;;4951304;28;20170;-60
2022/03/17 07:07:11;;;;;;;20.90;4.22;;;23.10;38.60;;;;;;4967380;28;20079;-61
2022/03/17 07:09:38;;;;;;;17.75;4.20;;;23.00;39.00;;;;;;4968079;28;20114;-61
2022/03/17 07:12:05;;;;;;;12.27;3.70;;;22.90;39.30;;;;;;4968446;28;20099;-59
2022/03/17 07:14:32;;;;;;;12.05;3.00;;;22.80;39.50;;;;;;4938409;28;20119;-60
2022/03/17 07:16:58;;;;;;;8.50;2.92;;;22.80;39.60;;;;;;4966281;28;20172;-60
2022/03/17 07:19:24;;;;;;;13.18;3.22;;;22.70;39.60;;;;;;4968100;28;20170;-62
2022/03/17 07:21:54;;;;;;;16.30;3.42;;;22.70;39.80;;;;;;4966533;28;20442;-59
2022/03/17 07:24:20;;;;;;;13.50;3.20;;;22.70;39.90;;;;;;4967561;28;20438;-60
2022/03/17 07:26:46;;;;;;;15.25;3.33;;;22.60;40.00;;;;;;4952967;28;20076;-61
2022/03/17 07:29:13;;;;;;;11.30;3.75;;;22.60;40.30;;;;;;4969701;28;20079;-59
2022/03/17 07:31:39;;;;;;;14.43;3.05;;;22.50;40.40;;;;;;4952141;28;20182;-61
2022/03/17 07:34:05;;;;;;;14.30;3.38;;;22.40;40.60;;;;;;4955407;28;20531;-59
2022/03/17 07:36:32;;;;;;;20.63;3.20;;;22.40;40.70;;;;;;4972912;28;20125;-62
2022/03/17 07:39:01;;;;;;;9.98;3.25;;;22.40;40.80;;;;;;4974427;28;20435;-60
2022/03/17 07:41:28;;;;;;;10.27;3.13;;;22.40;40.90;;;;;;4971581;28;20076;-61
2022/03/17 07:43:55;;;;;;;13.15;2.90;;;22.30;40.80;;;;;;4973009;28;20091;-61
2022/03/17 07:46:21;;;;;;;13.02;3.38;;;22.30;40.80;;;;;;4971742;28;20078;-60
2022/03/17 07:48:47;;;;;;;12.25;2.83;;;22.30;40.80;;;;;;4987483;28;20098;-59
2022/03/17 07:51:14;;;;;;;11.40;2.78;;;22.30;40.70;;;;;;4971314;28;20095;-58
2022/03/17 07:53:41;;;;;;;13.77;3.00;;;22.20;40.70;;;;;;4971918;28;20420;-63
2022/03/17 07:56:10;;;;;;;17.25;4.00;;;22.20;40.50;;;;;;4955811;28;20122;-65
2022/03/17 07:58:38;;;;;;;10.57;3.20;;;22.20;40.40;;;;;;4972329;28;20079;-61
2022/03/17 08:01:05;;;;;;;10.90;3.05;;;22.20;40.40;;;;;;4971808;28;20115;-63
2022/03/17 08:03:33;;;;;;;11.10;2.95;;;22.20;40.40;;;;;;4970662;28;20134;-63
2022/03/17 08:05:59;;;;;;;11.48;3.10;;;22.30;40.40;;;;;;4986902;28;20486;-60
2022/03/17 08:08:26;;;;;;;8.38;2.53;;;22.20;40.50;;;;;;4971553;28;20067;-60
2022/03/17 08:10:52;;;;;;;15.52;3.17;;;22.20;40.60;;;;;;4972790;28;20076;-60
2022/03/17 08:13:19;;;;;;;8.60;2.85;;;22.20;40.70;;;;;;4971662;28;20182;-60
2022/03/17 08:15:45;;;;;;;11.98;3.00;;;22.20;40.80;;;;;;4970523;28;20095;-62
2022/03/17 08:18:11;;;;;;;21.58;3.90;;;22.20;41.00;;;;;;4970952;28;20075;-62
2022/03/17 08:20:41;;;;;;;11.93;3.10;;;22.10;41.10;;;;;;4971985;28;20078;-60
2022/03/17 08:23:08;;;;;;;14.77;3.63;;;22.00;41.40;;;;;;4970806;28;20102;-60
2022/03/17 08:25:36;;;;;;;14.00;3.25;;;22.00;41.70;;;;;;4955387;28;20087;-61
2022/03/17 08:28:03;;;;;;;11.65;2.75;;;21.90;42.10;;;;;;4970450;28;20087;-59
2022/03/17 08:30:38;;;;;;;14.35;3.63;;;21.80;42.90;;;;;;4978675;28;20095;-61
2022/03/17 08:33:05;;;;;;;17.05;3.80;;;21.80;42.50;;;;;;4956006;28;20090;-57
2022/03/17 08:35:32;;;;;;;7.93;3.10;;;21.70;42.50;;;;;;4986420;28;20076;-59
2022/03/17 08:37:58;;;;;;;10.10;3.25;;;21.60;42.70;;;;;;4971804;28;20454;-60
2022/03/17 08:40:25;;;;;;;21.60;3.78;;;21.60;42.90;;;;;;4972361;28;20067;-58
2022/03/17 08:42:51;;;;;;;13.48;3.50;;;21.50;43.00;;;;;;4979031;28;20072;-60
2022/03/17 08:50:48;;;;;;;14.75;3.47;;;21.40;42.70;;;;;;4971289;28;20094;-62
2022/03/17 08:53:14;;;;;;;12.68;3.33;;;21.40;42.50;;;;;;4969998;28;20194;-60
2022/03/17 08:55:40;;;;;;;12.10;3.35;;;21.40;42.40;;;;;;4970488;28;20095;-57
2022/03/17 08:58:08;;;;;;;14.98;3.25;;;21.40;42.40;;;;;;4972467;28;20075;-60
2022/03/17 09:00:35;;;;;;;9.20;2.85;;;21.40;42.40;;;;;;4956006;28;20099;-61
2022/03/17 09:03:05;;;;;;;11.07;3.17;;;21.30;42.30;;;;;;4952940;28;20079;-61
2022/03/17 09:05:33;;;;;;;13.35;2.90;;;21.30;42.30;;;;;;4969376;28;20523;-60
2022/03/17 09:08:00;;;;;;;11.27;2.90;;;21.30;42.30;;;;;;4969912;28;20638;-61
2022/03/17 09:10:27;;;;;;;10.18;2.95;;;21.20;42.10;;;;;;4955280;28;20082;-61
2022/03/17 09:12:55;;;;;;;9.65;3.22;;;21.20;42.10;;;;;;4970399;28;20161;-62
2022/03/17 09:15:22;;;;;;;11.90;3.03;;;21.20;42.20;;;;;;4971544;28;20210;-61
2022/03/17 09:17:49;;;;;;;15.55;3.08;;;21.10;42.30;;;;;;4971526;28;20078;-60
2022/03/17 09:20:15;;;;;;;11.20;3.05;;;21.10;42.50;;;;;;4970486;28;20075;-63
2022/03/17 09:22:45;;;;;;;10.45;3.15;;;21.00;42.70;;;;;;4970086;28;20507;-62
2022/03/17 09:25:12;;;;;;;10.48;3.25;;;20.90;42.90;;;;;;4969484;28;20079;-61
2022/03/17 09:27:39;;;;;;;15.70;3.15;;;20.90;42.90;;;;;;4970557;28;20093;-63
2022/03/17 09:30:06;;;;;;;14.05;3.40;;;20.80;43.00;;;;;;4938156;28;20103;-60
2022/03/17 09:32:33;;;;;;;16.23;3.40;;;20.70;43.80;;;;;;4970920;28;20114;-62
2022/03/17 09:34:59;;;;;;;12.43;3.40;;;20.70;43.20;;;;;;4984841;28;20072;-61
2022/03/17 09:37:26;;;;;;;13.52;2.92;;;20.60;43.30;;;;;;4953394;28;20555;-61
2022/03/17 09:39:52;;;;;;;15.82;3.92;;;20.60;43.50;;;;;;4956697;28;20237;-61
2022/03/17 09:42:21;;;;;;;15.95;3.47;;;20.50;43.60;;;;;;4953856;28;20082;-59
2022/03/17 09:44:54;;;;;;;9.75;3.60;;;20.40;43.80;;;;;;4971349;28;20071;-61
2022/03/17 09:47:24;;;;;;;19.17;3.67;;;20.40;43.90;;;;;;4970483;28;20083;-60
2022/03/17 09:49:53;;;;;;;13.63;3.92;;;20.30;43.90;;;;;;4969543;28;20159;-62
2022/03/17 09:52:20;;;;;;;10.43;3.40;;;20.30;43.90;;;;;;4970909;28;20182;-60
2022/03/17 09:54:49;;;;;;;10.73;3.22;;;20.20;43.90;;;;;;4956525;28;20075;-61
2022/03/17 09:57:19;;;;;;;13.18;3.10;;;20.20;43.70;;;;;;4971049;28;20103;-59
2022/03/17 09:59:53;;;;;;;13.15;2.95;;;20.10;43.50;;;;;;4969793;28;20111;-59
2022/03/17 10:02:20;;;;;;;13.45;2.22;;;20.20;43.30;;;;;;4968704;28;20083;-62
2022/03/17 10:04:48;;;;;;;20.58;3.10;;;20.20;43.00;;;;;;4967098;28;20079;-59
2022/03/17 10:07:19;;;;;;;11.00;3.13;;;20.20;43.00;;;;;;4967949;28;20071;-60
2022/03/17 10:09:46;;;;;;;11.77;2.70;;;20.20;42.80;;;;;;4967977;28;20454;-59
2022/03/17 10:12:14;;;;;;;8.70;3.28;;;20.20;42.90;;;;;;4983902;28;20110;-62
2022/03/17 10:14:46;;;;;;;10.50;2.78;;;20.10;42.80;;;;;;4970982;28;20130;-63
2022/03/17 10:17:35;;;;;;;7.75;2.25;;;20.10;42.90;;;;;;4969234;28;20363;-59
2022/03/17 10:20:16;;;;;;;10.52;2.70;;;20.10;42.90;;;;;;4970109;28;20098;-62
2022/03/17 10:22:42;;;;;;;14.27;2.78;;;20.10;42.90;;;;;;4953442;28;20141;-61
2022/03/17 10:25:12;;;;;;;9.07;2.13;;;20.00;43.00;;;;;;4969635;28;20079;-58
2022/03/17 10:27:46;;;;;;;11.32;2.53;;;20.00;43.20;;;;;;4968258;28;20497;-59
2022/03/17 10:30:13;;;;;;;12.43;2.53;;;20.00;43.10;;;;;;4951953;28;20086;-57
2022/03/17 10:32:53;;;;;;;16.92;2.67;;;20.00;43.20;;;;;;4984880;28;20582;-62
2022/03/17 10:35:35;;;;;;;12.95;2.53;;;19.90;43.10;;;;;;4953437;28;20086;-60
2022/03/17 10:38:13;;;;;;;13.43;2.40;;;19.90;43.10;;;;;;4984369;28;20067;-62
2022/03/17 10:40:41;;;;;;;10.75;2.60;;;19.80;43.10;;;;;;4968743;28;20185;-60
2022/03/17 10:43:15;;;;;;;12.02;2.83;;;19.80;43.10;;;;;;4970472;28;20079;-60
2022/03/17 10:45:42;;;;;;;9.63;2.67;;;19.80;43.10;;;;;;4970165;28;20434;-58
2022/03/17 10:48:09;;;;;;;13.15;3.03;;;19.70;43.10;;;;;;4952830;28;20077;-61
2022/03/17 10:50:43;;;;;;;6.85;2.70;;;19.70;43.30;;;;;;4968553;28;20098;-60
2022/03/17 10:53:10;;;;;;;11.20;2.67;;;19.60;43.20;;;;;;4984571;28;20091;-59
2022/03/17 10:55:39;;;;;;;9.80;2.75;;;19.60;43.20;;;;;;4968411;28;20087;-60
2022/03/17 10:58:13;;;;;;;10.32;2.60;;;19.60;43.10;;;;;;4969680;28;20182;-61
2022/03/17 11:00:56;;;;;;;16.45;4.75;;;19.50;43.00;;;;;;4953234;28;20106;-60
2022/03/17 11:03:24;;;;;;;11.30;2.83;;;19.60;42.90;;;;;;4983388;28;20079;-58
2022/03/17 11:05:51;;;;;;;9.30;2.40;;;19.60;42.90;;;;;;4949637;28;20101;-63
2022/03/17 11:08:21;;;;;;;10.35;2.88;;;19.50;42.90;;;;;;4967281;28;20078;-60
2022/03/17 11:10:49;;;;;;;14.90;2.75;;;19.50;43.10;;;;;;4936872;28;20075;-62
2022/03/17 11:13:16;;;;;;;9.57;2.58;;;19.60;43.40;;;;;;4953067;28;20506;-60
2022/03/17 11:16:15;;;;;;;8.88;2.38;;;19.60;43.70;;;;;;4984047;28;20090;-61
2022/03/17 11:18:43;;;;;;;9.88;2.28;;;19.60;43.90;;;;;;4953413;28;20080;-60
2022/03/17 11:21:19;;;;;;;10.52;2.40;;;19.60;44.30;;;;;;4934127;28;20127;-62
2022/03/17 11:24:06;;;;;;;14.27;3.08;;;19.60;44.50;;;;;;4954044;28;20106;-60
2022/03/17 11:26:39;;;;;;;15.63;2.75;;;19.60;44.90;;;;;;4963415;28;20108;-59
2022/03/17 11:29:09;;;;;;;16.73;2.60;;;19.50;45.10;;;;;;4950505;28;20104;-59
2022/03/17 11:31:57;;;;;;;11.45;2.65;;;19.50;45.40;;;;;;4949951;28;20092;-58
2022/03/17 11:34:37;;;;;;;;;;;19.40;45.80;;;;;;4952847;28;20527;-60
2022/03/17 11:37:17;;;;;;;12.73;2.80;;;19.40;46.00;;;;;;4951429;28;19982;-61
2022/03/17 11:39:49;;;;;;;16.27;2.65;;;19.40;46.20;;;;;;4948515;28;20642;-63
2022/03/17 11:42:35;;;;;;;10.98;2.92;;;19.40;46.10;;;;;;4935267;28;20523;-60
2022/03/17 11:45:14;;;;;;;12.45;3.42;;;19.30;45.80;;;;;;4936347;28;20082;-58
2022/03/17 11:47:46;;;;;;;8.93;2.65;;;19.30;45.60;;;;;;4953085;28;20127;-60
2022/03/17 11:50:25;;;;;;;11.98;2.72;;;19.30;45.40;;;;;;4968602;28;20090;-61
2022/03/17 11:52:59;;;;;;;9.10;2.40;;;19.40;45.00;;;;;;4971222;28;20091;-60
2022/03/17 11:55:37;;;;;;;7.65;2.50;;;19.40;44.90;;;;;;4971533;28;20114;-58
2022/03/17 11:58:24;;;;;;;10.02;2.40;;;19.50;44.70;;;;;;4952565;28;20419;-61
2022/03/17 12:01:00;;;;;;;;;;;19.60;44.50;;;;;;4977310;28;20123;-60
2022/03/17 12:03:37;;;;;;;17.27;3.90;;;19.60;44.10;;;;;;4967045;28;20365;-60
2022/03/17 12:06:04;;;;;;;;;;;19.60;44.10;;;;;;4965817;28;20085;-60
2022/03/17 12:08:52;;;;;;;12.27;3.38;;;19.60;44.40;;;;;;4967395;28;19959;-62
2022/03/17 12:11:24;;;;;;;12.63;2.53;;;19.60;44.50;;;;;;4966948;28;20166;-63
2022/03/17 12:14:21;;;;;;;11.05;2.53;;;19.60;44.70;;;;;;4953263;28;20075;-59
2022/03/17 12:16:56;;;;;;;14.65;3.03;;;19.50;44.70;;;;;;4983766;28;20183;-63
2022/03/17 12:19:35;;;;;;;14.13;3.08;;;19.40;44.70;;;;;;4967789;28;21054;-63
2022/03/17 12:22:09;;;;;;;17.08;3.67;;;19.30;44.30;;;;;;4997325;28;20531;-60
2022/03/17 12:24:49;;;;;;;19.40;3.75;;;19.20;44.40;;;;;;4952476;28;20542;-58
2022/03/17 12:27:30;;;;;;;14.23;2.95;;;19.00;44.30;;;;;;4970401;28;20166;-64
2022/03/17 12:30:04;;;;;;;14.07;2.90;;;18.90;44.50;;;;;;4969348;28;20470;-62
2022/03/17 12:32:34;;;;;;;9.52;2.65;;;18.80;44.20;;;;;;4971966;28;20100;-61
2022/03/17 12:35:02;;;;;;;25.30;3.65;;;18.80;43.70;;;;;;4971201;28;20094;-61
2022/03/17 12:37:31;;;;;;;12.45;2.55;;;18.80;43.20;;;;;;4970776;28;20103;-62
2022/03/17 12:40:01;;;;;;;17.83;2.78;;;18.80;42.80;;;;;;4973132;28;20162;-66
2022/03/17 12:42:32;;;;;;;10.63;2.95;;;18.70;43.10;;;;;;4970490;28;20087;-59
2022/03/17 12:45:06;;;;;;;14.50;2.65;;;18.80;42.20;;;;;;4971285;28;20094;-62
2022/03/17 12:47:35;;;;;;;15.02;3.45;;;18.70;41.80;;;;;;4986666;28;20082;-59
2022/03/17 12:50:06;;;;;;;19.08;3.30;;;18.80;41.90;;;;;;4970672;28;20190;-63
2022/03/17 12:52:34;;;;;;;20.13;3.20;;;18.80;42.00;;;;;;4998766;28;20095;-63
2022/03/17 12:55:03;;;;;;;16.13;3.38;;;18.80;42.10;;;;;;4971715;28;20537;-58
2022/03/17 12:57:31;;;;;;;18.85;3.90;;;18.70;42.20;;;;;;4954647;28;20166;-60
2022/03/17 12:59:59;;;;;;;16.45;3.63;;;18.70;42.40;;;;;;4956345;28;20107;-62
2022/03/17 13:02:27;;;;;;;22.45;4.22;;;18.60;42.50;;;;;;4969962;28;21323;-62
2022/03/17 13:04:58;;;;;;;21.95;3.72;;;18.60;42.60;;;;;;4970091;28;20083;-62
2022/03/17 13:07:26;;;;;;;21.23;3.80;;;18.60;42.80;;;;;;4969191;28;20126;-59
2022/03/17 13:09:53;;;;;;;17.88;2.80;;;18.50;43.20;;;;;;4969019;28;20125;-61
2022/03/17 13:15:13;;;;;;;15.82;3.67;;;18.50;43.90;;;;;;4965616;28;20098;-61
2022/03/17 13:17:40;;;;;;;14.57;3.55;;;18.50;44.20;;;;;;4953162;28;20455;-62
2022/03/17 13:20:10;;;;;;;15.93;3.22;;;18.40;44.60;;;;;;4969617;28;20071;-59
2022/03/17 13:22:41;;;;;;;16.23;2.60;;;18.40;44.90;;;;;;4970423;28;20083;-59
2022/03/17 13:25:13;;;;;;;20.92;3.13;;;18.40;45.10;;;;;;4970018;28;20115;-57
2022/03/17 13:27:42;;;;;;;14.60;3.30;;;18.30;45.10;;;;;;4967712;28;20082;-62
2022/03/17 13:30:19;;;;;;;24.02;3.80;;;18.20;45.20;;;;;;4970284;28;20154;-58
2022/03/17 13:33:00;;;;;;;26.60;4.10;;;18.10;45.30;;;;;;4967774;28;20114;-60
2022/03/17 13:35:29;;;;;;;21.38;3.97;;;18.10;45.20;;;;;;4953014;28;20187;-60
2022/03/17 13:38:10;;;;;;;19.67;4.20;;;18.00;45.20;;;;;;4985184;28;20083;-59
2022/03/17 13:40:52;;;;;;;24.50;4.10;;;18.00;45.40;;;;;;4953145;28;20107;-61